sensor_id;sensor_type;location;lat;lon;timestamp;temperature;humidity
46608;DHT22;32330;51.936;7.184;2023-04-28T03:48:32;8.90;45.40
46608;DHT22;32330;51.936;7.184;2023-04-28T03:50:59;8.90;54.00
46608;DHT22;32330;51.936;7.184;2023-04-28T03:53:27;8.90;54.60
46608;DHT22;32330;51.936;7.184;2023-04-28T03:55:54;8.90;62.90
46608;DHT22;32330;51.936;7.184;2023-04-28T03:58:22;8.90;67.00
46608;DHT22;32330;51.936;7.184;2023-04-28T04:00:49;8.80;70.50
46608;DHT22;32330;51.936;7.184;2023-04-28T04:03:16;8.80;72.10
46608;DHT22;32330;51.936;7.184;2023-04-28T04:05:47;8.70;71.00
46608;DHT22;32330;51.936;7.184;2023-04-28T04:08:15;8.70;72.70
46608;DHT22;32330;51.936;7.184;2023-04-28T04:10:42;8.70;76.40
46608;DHT22;32330;51.936;7.184;2023-04-28T04:13:09;8.80;83.20
46608;DHT22;32330;51.936;7.184;2023-04-28T04:15:36;8.80;85.50
46608;DHT22;32330;51.936;7.184;2023-04-28T04:18:04;8.80;90.50
46608;DHT22;32330;51.936;7.184;2023-04-28T04:20:48;8.80;88.00
46608;DHT22;32330;51.936;7.184;2023-04-28T04:23:15;8.80;89.90
46608;DHT22;32330;51.936;7.184;2023-04-28T04:25:42;8.70;93.60
46608;DHT22;32330;51.936;7.184;2023-04-28T04:28:09;8.80;94.00
46608;DHT22;32330;51.936;7.184;2023-04-28T04:30:36;8.80;94.90
46608;DHT22;32330;51.936;7.184;2023-04-28T04:33:04;8.80;95.10
46608;DHT22;32330;51.936;7.184;2023-04-28T04:35:31;8.90;95.40
46608;DHT22;32330;51.936;7.184;2023-04-28T04:38:00;8.90;95.20
46608;DHT22;32330;51.936;7.184;2023-04-28T04:40:27;8.90;95.60
46608;DHT22;32330;51.936;7.184;2023-04-28T04:42:55;8.90;96.80
46608;DHT22;32330;51.936;7.184;2023-04-28T04:45:25;8.90;95.10
46608;DHT22;32330;51.936;7.184;2023-04-28T04:47:52;8.90;95.20
46608;DHT22;32330;51.936;7.184;2023-04-28T04:50:19;9.00;95.60
46608;DHT22;32330;51.936;7.184;2023-04-28T04:52:46;9.00;96.20
46608;DHT22;32330;51.936;7.184;2023-04-28T04:55:15;9.00;97.20
46608;DHT22;32330;51.936;7.184;2023-04-28T04:57:42;9.00;97.60
46608;DHT22;32330;51.936;7.184;2023-04-28T05:00:17;9.10;98.50
46608;DHT22;32330;51.936;7.184;2023-04-28T05:02:45;9.10;99.70
46608;DHT22;32330;51.936;7.184;2023-04-28T05:05:14;9.10;99.70
46608;DHT22;32330;51.936;7.184;2023-04-28T05:07:41;9.10;99.50
46608;DHT22;32330;51.936;7.184;2023-04-28T05:10:09;9.20;98.50
46608;DHT22;32330;51.936;7.184;2023-04-28T05:12:38;9.20;99.80
46608;DHT22;32330;51.936;7.184;2023-04-28T05:15:06;9.20;99.90
46608;DHT22;32330;51.936;7.184;2023-04-28T05:17:36;9.20;98.60
46608;DHT22;32330;51.936;7.184;2023-04-28T05:20:03;9.30;97.70
46608;DHT22;32330;51.936;7.184;2023-04-28T05:22:30;9.30;98.40
46608;DHT22;32330;51.936;7.184;2023-04-28T05:24:58;9.30;98.40
46608;DHT22;32330;51.936;7.184;2023-04-28T05:27:25;9.30;98.50
46608;DHT22;32330;51.936;7.184;2023-04-28T05:29:54;9.30;98.80
46608;DHT22;32330;51.936;7.184;2023-04-28T05:32:21;9.30;99.90
46608;DHT22;32330;51.936;7.184;2023-04-28T05:34:48;9.30;99.40
46608;DHT22;32330;51.936;7.184;2023-04-28T05:37:16;9.40;99.90
46608;DHT22;32330;51.936;7.184;2023-04-28T05:39:44;9.40;99.90
46608;DHT22;32330;51.936;7.184;2023-04-28T05:42:11;9.40;99.90
46608;DHT22;32330;51.936;7.184;2023-04-28T05:44:38;9.40;99.40
46608;DHT22;32330;51.936;7.184;2023-04-28T05:47:07;9.50;99.90
46608;DHT22;32330;51.936;7.184;2023-04-28T05:49:34;9.50;99.90
46608;DHT22;32330;51.936;7.184;2023-04-28T05:52:03;9.50;99.90
46608;DHT22;32330;51.936;7.184;2023-04-28T05:54:30;9.60;99.90
46608;DHT22;32330;51.936;7.184;2023-04-28T05:56:59;9.60;99.90
46608;DHT22;32330;51.936;7.184;2023-04-28T05:59:28;9.70;99.90
46608;DHT22;32330;51.936;7.184;2023-04-28T06:01:56;9.70;99.90
46608;DHT22;32330;51.936;7.184;2023-04-28T06:04:25;9.80;99.90
46608;DHT22;32330;51.936;7.184;2023-04-28T06:06:52;9.90;99.90
46608;DHT22;32330;51.936;7.184;2023-04-28T06:09:19;9.90;99.90
46608;DHT22;32330;51.936;7.184;2023-04-28T06:11:46;10.00;99.90
46608;DHT22;32330;51.936;7.184;2023-04-28T06:14:13;10.00;99.90
46608;DHT22;32330;51.936;7.184;2023-04-28T06:16:41;10.10;99.90
46608;DHT22;32330;51.936;7.184;2023-04-28T06:19:08;10.10;99.90
46608;DHT22;32330;51.936;7.184;2023-04-28T06:21:37;10.20;99.90
46608;DHT22;32330;51.936;7.184;2023-04-28T06:24:04;10.30;99.90
46608;DHT22;32330;51.936;7.184;2023-04-28T06:26:31;10.30;99.90
46608;DHT22;32330;51.936;7.184;2023-04-28T06:28:59;10.40;99.90
46608;DHT22;32330;51.936;7.184;2023-04-28T06:31:28;10.40;99.90
46608;DHT22;32330;51.936;7.184;2023-04-28T06:33:55;10.40;99.90
46608;DHT22;32330;51.936;7.184;2023-04-28T06:36:22;10.50;99.90
46608;DHT22;32330;51.936;7.184;2023-04-28T06:38:50;10.60;99.90
46608;DHT22;32330;51.936;7.184;2023-04-28T06:41:18;10.70;99.90
46608;DHT22;32330;51.936;7.184;2023-04-28T06:43:48;10.70;99.90
46608;DHT22;32330;51.936;7.184;2023-04-28T06:46:29;10.80;99.90
46608;DHT22;32330;51.936;7.184;2023-04-28T06:48:56;11.00;99.90
46608;DHT22;32330;51.936;7.184;2023-04-28T06:51:23;11.10;99.90
46608;DHT22;32330;51.936;7.184;2023-04-28T06:53:51;11.20;99.90
46608;DHT22;32330;51.936;7.184;2023-04-28T06:56:18;11.40;98.80
46608;DHT22;32330;51.936;7.184;2023-04-28T06:58:47;11.40;98.00
46608;DHT22;32330;51.936;7.184;2023-04-28T07:01:14;11.20;98.00
46608;DHT22;32330;51.936;7.184;2023-04-28T07:03:41;11.30;99.00
46608;DHT22;32330;51.936;7.184;2023-04-28T07:06:08;11.10;99.90
46608;DHT22;32330;51.936;7.184;2023-04-28T07:08:36;11.10;99.90
46608;DHT22;32330;51.936;7.184;2023-04-28T07:11:04;11.10;99.90
46608;DHT22;32330;51.936;7.184;2023-04-28T07:13:31;11.10;99.90
46608;DHT22;32330;51.936;7.184;2023-04-28T07:15:58;11.10;99.90
46608;DHT22;32330;51.936;7.184;2023-04-28T07:18:25;11.10;99.90
46608;DHT22;32330;51.936;7.184;2023-04-28T07:20:53;11.10;99.90
46608;DHT22;32330;51.936;7.184;2023-04-28T07:23:21;11.10;99.90
46608;DHT22;32330;51.936;7.184;2023-04-28T07:25:48;11.10;99.90
46608;DHT22;32330;51.936;7.184;2023-04-28T07:28:16;11.10;99.90
46608;DHT22;32330;51.936;7.184;2023-04-28T07:30:43;11.20;99.90
46608;DHT22;32330;51.936;7.184;2023-04-28T07:33:10;11.10;99.90
46608;DHT22;32330;51.936;7.184;2023-04-28T07:35:37;11.20;99.90
46608;DHT22;32330;51.936;7.184;2023-04-28T07:38:04;11.20;99.90
46608;DHT22;32330;51.936;7.184;2023-04-28T07:40:31;11.10;99.90
46608;DHT22;32330;51.936;7.184;2023-04-28T07:42:58;11.10;99.90
46608;DHT22;32330;51.936;7.184;2023-04-28T07:45:27;11.10;99.90
46608;DHT22;32330;51.936;7.184;2023-04-28T07:47:54;11.10;99.90
46608;DHT22;32330;51.936;7.184;2023-04-28T07:50:21;11.10;99.90
46608;DHT22;32330;51.936;7.184;2023-04-28T07:52:48;11.10;99.90
46608;DHT22;32330;51.936;7.184;2023-04-28T07:55:15;11.10;99.90
46608;DHT22;32330;51.936;7.184;2023-04-28T07:57:42;11.10;99.90
46608;DHT22;32330;51.936;7.184;2023-04-28T08:00:09;11.10;99.90
46608;DHT22;32330;51.936;7.184;2023-04-28T08:02:41;11.20;99.90
46608;DHT22;32330;51.936;7.184;2023-04-28T08:05:08;11.30;99.90
46608;DHT22;32330;51.936;7.184;2023-04-28T08:07:36;11.30;99.90
46608;DHT22;32330;51.936;7.184;2023-04-28T08:10:03;11.50;99.90
46608;DHT22;32330;51.936;7.184;2023-04-28T08:12:30;11.60;99.90
46608;DHT22;32330;51.936;7.184;2023-04-28T08:14:57;11.80;99.90
46608;DHT22;32330;51.936;7.184;2023-04-28T08:17:24;11.90;99.90
46608;DHT22;32330;51.936;7.184;2023-04-28T08:19:52;12.00;99.90
46608;DHT22;32330;51.936;7.184;2023-04-28T08:22:19;12.10;99.90
46608;DHT22;32330;51.936;7.184;2023-04-28T08:24:46;12.20;99.90
46608;DHT22;32330;51.936;7.184;2023-04-28T08:27:13;12.20;99.90
46608;DHT22;32330;51.936;7.184;2023-04-28T08:29:40;12.30;99.90
46608;DHT22;32330;51.936;7.184;2023-04-28T08:32:07;12.50;99.90
46608;DHT22;32330;51.936;7.184;2023-04-28T08:34:34;12.50;99.90
46608;DHT22;32330;51.936;7.184;2023-04-28T08:37:02;12.40;99.90
46608;DHT22;32330;51.936;7.184;2023-04-28T08:39:31;12.40;99.90
46608;DHT22;32330;51.936;7.184;2023-04-28T08:41:58;12.50;99.90
46608;DHT22;32330;51.936;7.184;2023-04-28T08:44:33;12.60;99.90
46608;DHT22;32330;51.936;7.184;2023-04-28T08:47:04;12.60;99.90
46608;DHT22;32330;51.936;7.184;2023-04-28T08:49:34;12.80;99.90
46608;DHT22;32330;51.936;7.184;2023-04-28T08:52:09;13.00;99.90
46608;DHT22;32330;51.936;7.184;2023-04-28T08:54:38;13.10;99.90
46608;DHT22;32330;51.936;7.184;2023-04-28T08:57:07;13.20;99.90
46608;DHT22;32330;51.936;7.184;2023-04-28T08:59:37;13.10;99.90
46608;DHT22;32330;51.936;7.184;2023-04-28T09:02:05;13.20;99.90
46608;DHT22;32330;51.936;7.184;2023-04-28T09:04:32;13.40;99.90
46608;DHT22;32330;51.936;7.184;2023-04-28T09:06:59;13.70;99.90
46608;DHT22;32330;51.936;7.184;2023-04-28T09:09:29;13.70;99.90
46608;DHT22;32330;51.936;7.184;2023-04-28T09:11:58;13.70;99.90
46608;DHT22;32330;51.936;7.184;2023-04-28T09:14:26;13.90;99.90
46608;DHT22;32330;51.936;7.184;2023-04-28T09:16:53;14.20;99.90
46608;DHT22;32330;51.936;7.184;2023-04-28T09:19:21;14.40;99.90
46608;DHT22;32330;51.936;7.184;2023-04-28T09:21:50;14.50;99.90
46608;DHT22;32330;51.936;7.184;2023-04-28T09:24:32;14.50;99.30
46608;DHT22;32330;51.936;7.184;2023-04-28T09:26:59;14.60;99.90
46608;DHT22;32330;51.936;7.184;2023-04-28T09:29:27;14.90;99.90
46608;DHT22;32330;51.936;7.184;2023-04-28T09:31:54;14.90;98.20
46608;DHT22;32330;51.936;7.184;2023-04-28T09:34:42;14.90;99.00
46608;DHT22;32330;51.936;7.184;2023-04-28T09:37:14;15.20;98.90
46608;DHT22;32330;51.936;7.184;2023-04-28T09:39:44;15.30;98.70
46608;DHT22;32330;51.936;7.184;2023-04-28T09:42:30;15.30;96.40
46608;DHT22;32330;51.936;7.184;2023-04-28T09:44:58;15.20;92.40
46608;DHT22;32330;51.936;7.184;2023-04-28T09:47:25;15.20;93.20
46608;DHT22;32330;51.936;7.184;2023-04-28T09:49:53;15.40;93.60
46608;DHT22;32330;51.936;7.184;2023-04-28T09:52:21;15.70;90.30
46608;DHT22;32330;51.936;7.184;2023-04-28T09:54:50;15.90;92.90
46608;DHT22;32330;51.936;7.184;2023-04-28T09:57:18;16.20;93.00
46608;DHT22;32330;51.936;7.184;2023-04-28T09:59:47;16.50;93.80
46608;DHT22;32330;51.936;7.184;2023-04-28T10:02:15;16.60;77.60
46608;DHT22;32330;51.936;7.184;2023-04-28T10:04:43;16.70;78.00
46608;DHT22;32330;51.936;7.184;2023-04-28T10:07:11;16.60;78.50
46608;DHT22;32330;51.936;7.184;2023-04-28T10:09:38;16.30;69.40
46608;DHT22;32330;51.936;7.184;2023-04-28T10:12:10;16.40;69.50
46608;DHT22;32330;51.936;7.184;2023-04-28T10:14:38;16.30;70.10
46608;DHT22;32330;51.936;7.184;2023-04-28T10:17:07;16.10;75.60
46608;DHT22;32330;51.936;7.184;2023-04-28T10:19:34;16.10;73.00
46608;DHT22;32330;51.936;7.184;2023-04-28T10:22:14;16.20;78.20
46608;DHT22;32330;51.936;7.184;2023-04-28T10:24:58;16.20;85.50
46608;DHT22;32330;51.936;7.184;2023-04-28T10:27:31;16.30;85.20
46608;DHT22;32330;51.936;7.184;2023-04-28T10:30:10;16.40;90.60
46608;DHT22;32330;51.936;7.184;2023-04-28T10:32:37;16.40;90.30
46608;DHT22;32330;51.936;7.184;2023-04-28T10:35:39;16.30;90.30
46608;DHT22;32330;51.936;7.184;2023-04-28T10:38:09;16.30;90.10
46608;DHT22;32330;51.936;7.184;2023-04-28T10:40:38;16.50;92.40
46608;DHT22;32330;51.936;7.184;2023-04-28T10:43:07;16.50;90.10
46608;DHT22;32330;51.936;7.184;2023-04-28T10:46:00;16.90;94.80
46608;DHT22;32330;51.936;7.184;2023-04-28T10:48:53;17.00;92.40
46608;DHT22;32330;51.936;7.184;2023-04-28T10:51:28;17.00;82.90
46608;DHT22;32330;51.936;7.184;2023-04-28T10:54:14;17.10;83.70
46608;DHT22;32330;51.936;7.184;2023-04-28T10:57:16;17.40;84.40
46608;DHT22;32330;51.936;7.184;2023-04-28T10:59:45;17.50;78.00
46608;DHT22;32330;51.936;7.184;2023-04-28T11:02:38;17.50;74.70
46608;DHT22;32330;51.936;7.184;2023-04-28T11:05:13;17.60;70.60
46608;DHT22;32330;51.936;7.184;2023-04-28T11:07:49;17.50;61.80
46608;DHT22;32330;51.936;7.184;2023-04-28T11:11:16;17.50;66.00
46608;DHT22;32330;51.936;7.184;2023-04-28T11:13:44;17.50;70.30
46608;DHT22;32330;51.936;7.184;2023-04-28T11:16:19;17.50;70.30
46608;DHT22;32330;51.936;7.184;2023-04-28T11:18:55;17.40;64.40
46608;DHT22;32330;51.936;7.184;2023-04-28T11:21:25;17.40;62.10
46608;DHT22;32330;51.936;7.184;2023-04-28T11:23:54;17.40;67.00
46608;DHT22;32330;51.936;7.184;2023-04-28T11:26:22;17.30;66.50
46608;DHT22;32330;51.936;7.184;2023-04-28T11:28:51;17.20;69.60
46608;DHT22;32330;51.936;7.184;2023-04-28T11:31:20;17.20;71.00
46608;DHT22;32330;51.936;7.184;2023-04-28T11:33:55;17.20;72.60
46608;DHT22;32330;51.936;7.184;2023-04-28T11:36:27;17.10;69.20
46608;DHT22;32330;51.936;7.184;2023-04-28T11:38:55;16.90;80.70
46608;DHT22;32330;51.936;7.184;2023-04-28T11:41:22;16.70;86.50
46608;DHT22;32330;51.936;7.184;2023-04-28T11:43:50;16.50;95.00
46608;DHT22;32330;51.936;7.184;2023-04-28T11:46:20;16.30;98.30
46608;DHT22;32330;51.936;7.184;2023-04-28T11:48:48;16.50;99.10
46608;DHT22;32330;51.936;7.184;2023-04-28T11:51:28;16.70;99.40
46608;DHT22;32330;51.936;7.184;2023-04-28T11:53:55;16.80;96.90
46608;DHT22;32330;51.936;7.184;2023-04-28T11:56:22;17.00;98.60
46608;DHT22;32330;51.936;7.184;2023-04-28T11:59:02;17.20;98.20
46608;DHT22;32330;51.936;7.184;2023-04-28T12:01:31;17.20;95.10
46608;DHT22;32330;51.936;7.184;2023-04-28T12:03:59;17.30;96.20
46608;DHT22;32330;51.936;7.184;2023-04-28T12:06:26;17.20;95.10
46608;DHT22;32330;51.936;7.184;2023-04-28T12:08:54;17.10;93.50
46608;DHT22;32330;51.936;7.184;2023-04-28T12:11:22;16.80;93.40
46608;DHT22;32330;51.936;7.184;2023-04-28T12:14:05;16.60;95.50
46608;DHT22;32330;51.936;7.184;2023-04-28T12:16:43;16.60;98.80
46608;DHT22;32330;51.936;7.184;2023-04-28T12:19:12;16.60;99.80
46608;DHT22;32330;51.936;7.184;2023-04-28T12:21:40;16.50;99.90
46608;DHT22;32330;51.936;7.184;2023-04-28T12:24:15;16.40;99.90
46608;DHT22;32330;51.936;7.184;2023-04-28T12:26:42;16.40;99.90
46608;DHT22;32330;51.936;7.184;2023-04-28T12:29:09;16.30;99.90
46608;DHT22;32330;51.936;7.184;2023-04-28T12:31:57;16.30;99.90
46608;DHT22;32330;51.936;7.184;2023-04-28T12:34:24;16.30;99.90
46608;DHT22;32330;51.936;7.184;2023-04-28T12:36:54;16.30;99.90
46608;DHT22;32330;51.936;7.184;2023-04-28T12:39:20;16.20;99.90
46608;DHT22;32330;51.936;7.184;2023-04-28T12:41:48;16.10;99.90
46608;DHT22;32330;51.936;7.184;2023-04-28T12:44:15;16.20;99.90
46608;DHT22;32330;51.936;7.184;2023-04-28T12:46:42;16.20;99.90
46608;DHT22;32330;51.936;7.184;2023-04-28T12:49:10;16.10;99.90
46608;DHT22;32330;51.936;7.184;2023-04-28T12:51:38;16.10;99.90
46608;DHT22;32330;51.936;7.184;2023-04-28T12:54:05;16.30;99.90
46608;DHT22;32330;51.936;7.184;2023-04-28T12:56:33;16.20;99.90
46608;DHT22;32330;51.936;7.184;2023-04-28T12:59:00;16.10;99.90
46608;DHT22;32330;51.936;7.184;2023-04-28T13:01:28;16.30;99.90
46608;DHT22;32330;51.936;7.184;2023-04-28T13:03:55;16.30;99.90
46608;DHT22;32330;51.936;7.184;2023-04-28T13:06:23;16.10;99.90
46608;DHT22;32330;51.936;7.184;2023-04-28T13:08:52;16.00;99.90
46608;DHT22;32330;51.936;7.184;2023-04-28T13:11:19;16.00;99.90
46608;DHT22;32330;51.936;7.184;2023-04-28T13:13:46;16.10;99.90
46608;DHT22;32330;51.936;7.184;2023-04-28T13:16:13;16.00;99.90
46608;DHT22;32330;51.936;7.184;2023-04-28T13:18:40;16.30;99.90
46608;DHT22;32330;51.936;7.184;2023-04-28T13:21:07;16.20;99.90
46608;DHT22;32330;51.936;7.184;2023-04-28T13:23:35;16.30;99.90
46608;DHT22;32330;51.936;7.184;2023-04-28T13:26:02;16.30;99.90
46608;DHT22;32330;51.936;7.184;2023-04-28T13:28:29;16.30;99.90
46608;DHT22;32330;51.936;7.184;2023-04-28T13:30:57;16.30;99.90
46608;DHT22;32330;51.936;7.184;2023-04-28T13:33:24;16.30;99.90
46608;DHT22;32330;51.936;7.184;2023-04-28T13:35:56;16.20;99.90
46608;DHT22;32330;51.936;7.184;2023-04-28T13:38:24;16.30;99.90
46608;DHT22;32330;51.936;7.184;2023-04-28T13:40:52;16.50;99.90
46608;DHT22;32330;51.936;7.184;2023-04-28T13:43:19;16.80;99.90
46608;DHT22;32330;51.936;7.184;2023-04-28T13:45:46;16.90;99.90
46608;DHT22;32330;51.936;7.184;2023-04-28T13:48:14;17.10;99.90
46608;DHT22;32330;51.936;7.184;2023-04-28T13:50:41;17.20;99.90
46608;DHT22;32330;51.936;7.184;2023-04-28T13:53:08;17.40;99.90
46608;DHT22;32330;51.936;7.184;2023-04-28T13:55:35;17.40;99.90
46608;DHT22;32330;51.936;7.184;2023-04-28T13:58:04;17.50;99.90
46608;DHT22;32330;51.936;7.184;2023-04-28T14:00:31;17.30;99.90
46608;DHT22;32330;51.936;7.184;2023-04-28T14:02:59;17.20;99.90
46608;DHT22;32330;51.936;7.184;2023-04-28T14:05:26;17.00;99.90
46608;DHT22;32330;51.936;7.184;2023-04-28T14:07:53;16.90;99.90
46608;DHT22;32330;51.936;7.184;2023-04-28T14:10:21;16.90;99.90
46608;DHT22;32330;51.936;7.184;2023-04-28T14:12:48;16.90;99.90
46608;DHT22;32330;51.936;7.184;2023-04-28T14:15:16;16.80;99.90
46608;DHT22;32330;51.936;7.184;2023-04-28T14:17:43;16.80;99.90
46608;DHT22;32330;51.936;7.184;2023-04-28T14:20:10;16.90;99.90
46608;DHT22;32330;51.936;7.184;2023-04-28T14:22:38;16.90;99.80
46608;DHT22;32330;51.936;7.184;2023-04-28T14:25:06;16.90;99.90
46608;DHT22;32330;51.936;7.184;2023-04-28T14:27:33;16.90;99.90
46608;DHT22;32330;51.936;7.184;2023-04-28T14:30:00;16.90;99.90
46608;DHT22;32330;51.936;7.184;2023-04-28T14:32:29;17.00;99.90
46608;DHT22;32330;51.936;7.184;2023-04-28T14:34:56;17.10;99.90
46608;DHT22;32330;51.936;7.184;2023-04-28T14:37:23;16.90;97.60
46608;DHT22;32330;51.936;7.184;2023-04-28T14:39:51;17.00;99.80
46608;DHT22;32330;51.936;7.184;2023-04-28T14:42:18;17.00;99.20
46608;DHT22;32330;51.936;7.184;2023-04-28T14:44:45;16.80;99.90
46608;DHT22;32330;51.936;7.184;2023-04-28T14:47:12;16.90;99.90
46608;DHT22;32330;51.936;7.184;2023-04-28T14:49:41;16.70;99.90
46608;DHT22;32330;51.936;7.184;2023-04-28T14:52:08;16.70;99.90
46608;DHT22;32330;51.936;7.184;2023-04-28T14:54:35;16.70;99.90
46608;DHT22;32330;51.936;7.184;2023-04-28T14:57:02;16.60;99.90
46608;DHT22;32330;51.936;7.184;2023-04-28T14:59:29;16.50;99.90
46608;DHT22;32330;51.936;7.184;2023-04-28T15:01:56;16.60;99.90
46608;DHT22;32330;51.936;7.184;2023-04-28T15:04:23;16.40;99.90
46608;DHT22;32330;51.936;7.184;2023-04-28T15:06:55;16.30;99.90
46608;DHT22;32330;51.936;7.184;2023-04-28T15:09:24;16.30;99.90
46608;DHT22;32330;51.936;7.184;2023-04-28T15:11:51;16.20;99.90
46608;DHT22;32330;51.936;7.184;2023-04-28T15:14:18;16.20;99.90
46608;DHT22;32330;51.936;7.184;2023-04-28T15:16:45;16.10;99.90
46608;DHT22;32330;51.936;7.184;2023-04-28T15:19:13;16.20;99.90
46608;DHT22;32330;51.936;7.184;2023-04-28T15:21:40;16.00;99.90
46608;DHT22;32330;51.936;7.184;2023-04-28T15:24:08;16.00;99.90
46608;DHT22;32330;51.936;7.184;2023-04-28T15:26:35;15.80;99.90
46608;DHT22;32330;51.936;7.184;2023-04-28T15:29:03;15.50;99.90
46608;DHT22;32330;51.936;7.184;2023-04-28T15:31:30;15.40;99.90
46608;DHT22;32330;51.936;7.184;2023-04-28T15:33:57;15.20;99.90
46608;DHT22;32330;51.936;7.184;2023-04-28T15:36:24;15.10;99.90
46608;DHT22;32330;51.936;7.184;2023-04-28T15:38:51;15.20;99.90
46608;DHT22;32330;51.936;7.184;2023-04-28T15:41:19;15.10;99.90
46608;DHT22;32330;51.936;7.184;2023-04-28T15:43:46;15.00;99.90
46608;DHT22;32330;51.936;7.184;2023-04-28T15:46:15;14.90;99.90
46608;DHT22;32330;51.936;7.184;2023-04-28T15:48:42;15.10;99.90
46608;DHT22;32330;51.936;7.184;2023-04-28T15:51:10;15.10;99.90
46608;DHT22;32330;51.936;7.184;2023-04-28T15:53:38;15.20;99.90
46608;DHT22;32330;51.936;7.184;2023-04-28T15:56:05;15.40;99.90
46608;DHT22;32330;51.936;7.184;2023-04-28T15:58:34;15.30;99.90
46608;DHT22;32330;51.936;7.184;2023-04-28T16:01:01;15.40;99.90
46608;DHT22;32330;51.936;7.184;2023-04-28T16:03:28;15.50;99.90
46608;DHT22;32330;51.936;7.184;2023-04-28T16:05:55;15.30;99.90
46608;DHT22;32330;51.936;7.184;2023-04-28T16:08:22;15.40;99.90
46608;DHT22;32330;51.936;7.184;2023-04-28T16:10:50;15.40;99.90
46608;DHT22;32330;51.936;7.184;2023-04-28T16:13:17;15.30;99.90
46608;DHT22;32330;51.936;7.184;2023-04-28T16:15:45;15.30;99.90
46608;DHT22;32330;51.936;7.184;2023-04-28T16:18:15;15.30;99.90
46608;DHT22;32330;51.936;7.184;2023-04-28T16:20:43;15.30;99.90
46608;DHT22;32330;51.936;7.184;2023-04-28T16:23:10;15.10;99.90
46608;DHT22;32330;51.936;7.184;2023-04-28T16:25:37;15.10;99.90
46608;DHT22;32330;51.936;7.184;2023-04-28T16:28:04;15.30;99.90
46608;DHT22;32330;51.936;7.184;2023-04-28T16:30:32;15.20;99.90
46608;DHT22;32330;51.936;7.184;2023-04-28T16:33:00;15.30;99.90
46608;DHT22;32330;51.936;7.184;2023-04-28T16:35:27;15.20;99.90
46608;DHT22;32330;51.936;7.184;2023-04-28T16:37:54;15.20;99.90
46608;DHT22;32330;51.936;7.184;2023-04-28T16:40:21;15.10;99.90
46608;DHT22;32330;51.936;7.184;2023-04-28T16:42:48;15.10;99.90
46608;DHT22;32330;51.936;7.184;2023-04-28T16:45:15;15.00;99.90
46608;DHT22;32330;51.936;7.184;2023-04-28T16:47:43;15.00;99.90
46608;DHT22;32330;51.936;7.184;2023-04-28T16:50:12;15.00;99.90
46608;DHT22;32330;51.936;7.184;2023-04-28T16:52:40;15.00;99.90
46608;DHT22;32330;51.936;7.184;2023-04-28T16:55:08;15.00;99.90
46608;DHT22;32330;51.936;7.184;2023-04-28T16:57:35;15.00;99.90
46608;DHT22;32330;51.936;7.184;2023-04-28T17:00:06;14.90;99.90
46608;DHT22;32330;51.936;7.184;2023-04-28T17:02:39;14.80;99.90
46608;DHT22;32330;51.936;7.184;2023-04-28T17:05:26;14.80;99.90
46608;DHT22;32330;51.936;7.184;2023-04-28T17:09:28;14.80;99.90
46608;DHT22;32330;51.936;7.184;2023-04-28T17:12:39;14.80;99.90
46608;DHT22;32330;51.936;7.184;2023-04-28T17:31:08;14.50;99.90
46608;DHT22;32330;51.936;7.184;2023-04-28T17:33:39;14.50;99.90
46608;DHT22;32330;51.936;7.184;2023-04-28T17:36:06;14.50;99.90
46608;DHT22;32330;51.936;7.184;2023-04-28T17:38:34;14.50;99.90
46608;DHT22;32330;51.936;7.184;2023-04-28T17:41:01;14.40;99.90
46608;DHT22;32330;51.936;7.184;2023-04-28T17:43:29;14.30;99.90
46608;DHT22;32330;51.936;7.184;2023-04-28T17:45:56;14.30;99.90
46608;DHT22;32330;51.936;7.184;2023-04-28T17:48:24;14.40;99.90
46608;DHT22;32330;51.936;7.184;2023-04-28T17:50:51;14.30;99.90
46608;DHT22;32330;51.936;7.184;2023-04-28T17:53:18;14.40;99.90
46608;DHT22;32330;51.936;7.184;2023-04-28T17:55:46;14.30;99.90
46608;DHT22;32330;51.936;7.184;2023-04-28T17:58:14;14.20;99.90
46608;DHT22;32330;51.936;7.184;2023-04-28T18:00:41;14.20;99.90
46608;DHT22;32330;51.936;7.184;2023-04-28T18:03:08;14.10;99.90
46608;DHT22;32330;51.936;7.184;2023-04-28T18:05:36;14.10;99.90
46608;DHT22;32330;51.936;7.184;2023-04-28T18:08:03;14.10;99.90
46608;DHT22;32330;51.936;7.184;2023-04-28T18:10:30;14.10;99.90
46608;DHT22;32330;51.936;7.184;2023-04-28T18:12:58;14.10;99.90
46608;DHT22;32330;51.936;7.184;2023-04-28T18:15:25;14.10;99.90
46608;DHT22;32330;51.936;7.184;2023-04-28T18:17:52;14.10;99.90
46608;DHT22;32330;51.936;7.184;2023-04-28T18:20:19;14.10;99.90
46608;DHT22;32330;51.936;7.184;2023-04-28T18:22:47;14.00;99.90
46608;DHT22;32330;51.936;7.184;2023-04-28T18:25:14;14.00;99.90
46608;DHT22;32330;51.936;7.184;2023-04-28T18:27:42;14.00;99.90
46608;DHT22;32330;51.936;7.184;2023-04-28T18:30:09;13.90;99.90
46608;DHT22;32330;51.936;7.184;2023-04-28T18:32:36;13.90;99.90
46608;DHT22;32330;51.936;7.184;2023-04-28T18:35:04;13.90;99.90
46608;DHT22;32330;51.936;7.184;2023-04-28T18:37:31;13.80;99.90
46608;DHT22;32330;51.936;7.184;2023-04-28T18:39:59;13.90;99.90
46608;DHT22;32330;51.936;7.184;2023-04-28T18:42:26;13.80;99.90
46608;DHT22;32330;51.936;7.184;2023-04-28T18:44:54;13.80;99.90
46608;DHT22;32330;51.936;7.184;2023-04-28T18:47:21;13.80;99.90
46608;DHT22;32330;51.936;7.184;2023-04-28T18:49:48;13.80;99.90
46608;DHT22;32330;51.936;7.184;2023-04-28T18:52:15;13.70;99.90
46608;DHT22;32330;51.936;7.184;2023-04-28T18:54:42;13.70;99.90
46608;DHT22;32330;51.936;7.184;2023-04-28T18:57:11;13.80;99.90
46608;DHT22;32330;51.936;7.184;2023-04-28T18:59:38;13.70;99.90
46608;DHT22;32330;51.936;7.184;2023-04-28T19:02:05;13.70;99.90
46608;DHT22;32330;51.936;7.184;2023-04-28T19:04:33;13.70;99.90
46608;DHT22;32330;51.936;7.184;2023-04-28T19:07:01;13.70;99.90
46608;DHT22;32330;51.936;7.184;2023-04-28T19:09:28;13.70;99.90
46608;DHT22;32330;51.936;7.184;2023-04-28T19:11:55;13.60;99.90
46608;DHT22;32330;51.936;7.184;2023-04-28T19:14:24;13.70;99.90
46608;DHT22;32330;51.936;7.184;2023-04-28T19:16:51;13.70;99.90
46608;DHT22;32330;51.936;7.184;2023-04-28T19:19:18;13.60;99.90
46608;DHT22;32330;51.936;7.184;2023-04-28T19:21:45;13.60;99.90
46608;DHT22;32330;51.936;7.184;2023-04-28T19:24:12;13.60;99.90
46608;DHT22;32330;51.936;7.184;2023-04-28T19:26:39;13.60;99.90
46608;DHT22;32330;51.936;7.184;2023-04-28T19:29:06;13.60;99.90
46608;DHT22;32330;51.936;7.184;2023-04-28T19:31:34;13.60;99.90
46608;DHT22;32330;51.936;7.184;2023-04-28T19:34:01;13.60;99.90
46608;DHT22;32330;51.936;7.184;2023-04-28T19:36:28;13.60;99.90
46608;DHT22;32330;51.936;7.184;2023-04-28T19:38:57;13.50;99.90
46608;DHT22;32330;51.936;7.184;2023-04-28T19:41:24;13.50;99.90
46608;DHT22;32330;51.936;7.184;2023-04-28T19:43:53;13.50;99.90
46608;DHT22;32330;51.936;7.184;2023-04-28T19:46:20;13.50;99.90
46608;DHT22;32330;51.936;7.184;2023-04-28T19:48:49;13.60;99.90